Time;durP1;ratioP1;P1;durP2;ratioP2;P2;SDS_P1;SDS_P2;PMS_P1;PMS_P2;Temp;Humidity;BMP_temperature;BMP_pressure;BME280_temperature;BME280_humidity;BME280_pressure;Samples;Min_cycle;Max_cycle;Signal;HPM_P1;HPM_P2
2024/01/01 00:01:55;;;;;;;;;;;7.40;99.90;;;;;;6190264;23;19916;-78
2024/01/01 00:04:21;;;;;;;;;;;7.40;99.90;;;;;;6217008;23;19962;-78
2024/01/01 00:06:46;;;;;;;;;;;7.40;99.90;;;;;;6190251;23;19970;-78
2024/01/01 00:09:12;;;;;;;;;;;7.40;99.90;;;;;;6190105;23;20217;-78
2024/01/01 00:11:37;;;;;;;;;;;7.40;99.90;;;;;;6216417;23;19923;-78
2024/01/01 00:14:03;;;;;;;;;;;7.40;99.90;;;;;;6216564;23;19915;-77
2024/01/01 00:16:28;;;;;;;;;;;7.40;99.90;;;;;;6190029;23;20340;-78
2024/01/01 00:18:54;;;;;;;;;;;7.30;99.90;;;;;;6190012;23;19922;-78
2024/01/01 00:21:20;;;;;;;;;;;7.30;99.90;;;;;;6216899;23;19937;-78
2024/01/01 00:23:45;;;;;;;;;;;7.40;99.90;;;;;;6216865;23;20320;-78
2024/01/01 00:26:11;;;;;;;;;;;7.30;99.90;;;;;;6216899;23;19919;-78
2024/01/01 00:28:36;;;;;;;;;;;7.30;99.90;;;;;;6189842;23;19992;-78
2024/01/01 00:31:04;;;;;;;;;;;7.40;99.90;;;;;;6216815;23;19962;-78
2024/01/01 00:33:30;;;;;;;;;;;7.40;99.90;;;;;;6216846;23;19963;-78
2024/01/01 00:35:55;;;;;;;;;;;7.40;99.90;;;;;;6216455;23;20287;-78
2024/01/01 00:38:21;;;;;;;;;;;7.40;99.90;;;;;;6189913;23;19943;-78
2024/01/01 00:40:47;;;;;;;;;;;7.40;99.90;;;;;;6216792;23;19923;-78
2024/01/01 00:43:12;;;;;;;;;;;7.30;99.90;;;;;;6216767;23;19916;-78
2024/01/01 00:45:38;;;;;;;;;;;7.30;99.90;;;;;;6189892;23;20038;-78
2024/01/01 00:48:03;;;;;;;;;;;7.30;99.90;;;;;;6189923;23;19951;-78
2024/01/01 00:50:29;;;;;;;;;;;7.30;99.90;;;;;;6189602;23;19916;-78
2024/01/01 00:52:54;;;;;;;;;;;7.30;99.90;;;;;;6189916;23;19958;-78
2024/01/01 00:55:20;;;;;;;;;;;7.30;99.90;;;;;;6189891;23;19923;-78
2024/01/01 00:57:45;;;;;;;;;;;7.30;99.90;;;;;;6216785;23;20229;-78
2024/01/01 01:00:12;;;;;;;;;;;7.30;99.90;;;;;;6189841;23;20252;-78
2024/01/01 01:02:38;;;;;;;;;;;7.40;99.90;;;;;;6189828;23;19931;-78
2024/01/01 01:05:03;;;;;;;;;;;7.30;99.90;;;;;;6216612;23;19915;-78
2024/01/01 01:07:30;;;;;;;;;;;7.30;99.90;;;;;;6217297;23;19931;-78
2024/01/01 01:09:56;;;;;;;;;;;7.20;99.90;;;;;;6191783;23;19920;-78
2024/01/01 01:12:22;;;;;;;;;;;7.20;99.90;;;;;;6191456;23;19927;-78
2024/01/01 01:14:48;;;;;;;;;;;7.20;99.90;;;;;;6218612;23;19916;-78
2024/01/01 01:17:14;;;;;;;;;;;7.20;99.90;;;;;;6218310;23;20035;-78
2024/01/01 01:19:39;;;;;;;;;;;7.20;99.90;;;;;;6217585;23;19930;-78
2024/01/01 01:22:05;;;;;;;;;;;7.20;99.90;;;;;;6191644;23;19943;-78
2024/01/01 01:24:30;;;;;;;;;;;7.10;99.90;;;;;;6218594;23;19920;-78
2024/01/01 01:26:56;;;;;;;;;;;7.10;99.90;;;;;;6218227;23;19920;-78
2024/01/01 01:29:22;;;;;;;;;;;7.10;99.90;;;;;;6191685;23;19916;-78
2024/01/01 01:31:50;;;;;;;;;;;7.10;99.90;;;;;;6217980;23;19931;-78
2024/01/01 01:34:15;;;;;;;;;;;7.10;99.90;;;;;;6218422;23;19916;-78
2024/01/01 01:36:41;;;;;;;;;;;7.10;99.90;;;;;;6218259;23;19926;-78
2024/01/01 01:39:06;;;;;;;;;;;7.10;99.90;;;;;;6191653;23;19990;-78
2024/01/01 01:41:32;;;;;;;;;;;7.10;99.90;;;;;;6191563;23;19915;-78
2024/01/01 01:43:57;;;;;;;;;;;7.10;99.90;;;;;;6191432;23;19990;-78
2024/01/01 01:46:24;;;;;;;;;;;7.10;99.90;;;;;;6191601;23;19916;-77
2024/01/01 01:48:49;;;;;;;;;;;7.10;99.90;;;;;;6191304;23;19923;-77
2024/01/01 01:51:15;;;;;;;;;;;7.10;99.90;;;;;;6191319;23;19958;-77
2024/01/01 01:53:41;;;;;;;;;;;7.10;99.90;;;;;;6191446;23;19915;-77
2024/01/01 01:56:07;;;;;;;;;;;7.10;99.90;;;;;;6191302;23;20318;-77
2024/01/01 01:58:33;;;;;;;;;;;7.00;99.90;;;;;;6218267;23;19961;-77
2024/01/01 02:00:58;;;;;;;;;;;7.00;99.90;;;;;;6191351;23;19947;-77
2024/01/01 02:03:24;;;;;;;;;;;7.00;99.90;;;;;;6191315;23;19966;-77
2024/01/01 02:05:50;;;;;;;;;;;7.00;99.90;;;;;;6218230;23;19915;-77
2024/01/01 02:08:16;;;;;;;;;;;7.00;99.90;;;;;;6191179;23;20221;-78
2024/01/01 02:10:41;;;;;;;;;;;6.90;99.90;;;;;;6191196;23;19926;-77
2024/01/01 02:13:19;;;;;;;;;;;7.00;99.90;;;;;;6217704;23;20291;-78
2024/01/01 02:15:45;;;;;;;;;;;7.00;99.90;;;;;;6191200;23;19916;-78
2024/01/01 02:18:10;;;;;;;;;;;7.10;99.90;;;;;;6190627;23;19916;-78
2024/01/01 02:20:36;;;;;;;;;;;7.10;99.90;;;;;;6190551;23;19920;-78
2024/01/01 02:23:01;;;;;;;;;;;7.10;99.90;;;;;;6191211;23;19934;-78
2024/01/01 02:25:27;;;;;;;;;;;7.10;99.90;;;;;;6217718;23;20332;-78
2024/01/01 02:27:52;;;;;;;;;;;7.10;99.90;;;;;;6191103;23;19915;-78
2024/01/01 02:30:18;;;;;;;;;;;7.00;99.90;;;;;;6218020;23;19920;-78
2024/01/01 02:32:43;;;;;;;;;;;7.00;99.90;;;;;;6217774;23;20259;-78
2024/01/01 02:35:09;;;;;;;;;;;7.00;99.90;;;;;;6191095;23;19922;-78
2024/01/01 02:37:35;;;;;;;;;;;7.00;99.90;;;;;;6217922;23;19916;-78
2024/01/01 02:40:01;;;;;;;;;;;7.00;99.90;;;;;;6217857;23;19915;-78
2024/01/01 02:42:27;;;;;;;;;;;7.00;99.90;;;;;;6190997;23;19962;-79
2024/01/01 02:44:52;;;;;;;;;;;6.90;99.90;;;;;;6190907;23;20328;-78
2024/01/01 02:47:18;;;;;;;;;;;6.90;99.90;;;;;;6217491;23;19923;-78
2024/01/01 02:49:43;;;;;;;;;;;6.90;99.90;;;;;;6217395;23;19923;-78
2024/01/01 02:52:09;;;;;;;;;;;6.90;99.90;;;;;;6217693;23;19920;-78
2024/01/01 02:54:34;;;;;;;;;;;7.00;99.90;;;;;;6217516;23;19915;-78
2024/01/01 02:57:00;;;;;;;;;;;6.90;99.90;;;;;;6217392;23;19915;-78
2024/01/01 02:59:25;;;;;;;;;;;6.90;99.90;;;;;;6190952;23;19916;-78
2024/01/01 03:01:51;;;;;;;;;;;6.90;99.90;;;;;;6217715;23;19919;-78
2024/01/01 03:04:16;;;;;;;;;;;6.90;99.90;;;;;;6217615;23;19923;-78
2024/01/01 03:06:42;;;;;;;;;;;6.90;99.90;;;;;;6190648;23;19915;-78
2024/01/01 03:09:08;;;;;;;;;;;6.80;99.90;;;;;;6190758;23;19922;-78
2024/01/01 03:11:33;;;;;;;;;;;6.90;99.90;;;;;;6217140;23;19923;-78
2024/01/01 03:13:59;;;;;;;;;;;6.90;99.90;;;;;;6217603;23;19923;-78
2024/01/01 03:16:24;;;;;;;;;;;6.90;99.90;;;;;;6217504;23;19916;-78
2024/01/01 03:18:50;;;;;;;;;;;6.90;99.90;;;;;;6190617;23;19916;-77
2024/01/01 03:21:15;;;;;;;;;;;6.90;99.90;;;;;;6190461;23;19937;-77
2024/01/01 03:23:42;;;;;;;;;;;6.80;99.90;;;;;;6190551;23;19950;-78
2024/01/01 03:26:08;;;;;;;;;;;6.90;99.90;;;;;;6190389;23;19916;-77
2024/01/01 03:28:34;;;;;;;;;;;6.90;99.90;;;;;;6190494;23;19922;-77
2024/01/01 03:31:00;;;;;;;;;;;6.90;99.90;;;;;;6216805;23;19923;-77
2024/01/01 03:33:26;;;;;;;;;;;6.90;99.90;;;;;;6217331;23;19915;-78
2024/01/01 03:35:52;;;;;;;;;;;6.90;99.90;;;;;;6217294;23;19963;-78
2024/01/01 03:38:18;;;;;;;;;;;6.90;99.90;;;;;;6190540;23;19916;-78
2024/01/01 03:40:44;;;;;;;;;;;6.90;99.90;;;;;;6216898;23;19919;-77
2024/01/01 03:43:09;;;;;;;;;;;6.90;99.90;;;;;;6216985;23;19998;-77
2024/01/01 03:45:35;;;;;;;;;;;6.80;99.90;;;;;;6190316;23;19958;-77
2024/01/01 03:48:01;;;;;;;;;;;6.90;99.90;;;;;;6217000;23;19923;-78
2024/01/01 03:50:28;;;;;;;;;;;6.90;99.90;;;;;;6190100;23;19916;-78
2024/01/01 03:52:55;;;;;;;;;;;6.90;99.90;;;;;;6217143;23;19915;-78
2024/01/01 03:55:21;;;;;;;;;;;6.90;99.90;;;;;;6190217;23;19916;-77
2024/01/01 03:57:46;;;;;;;;;;;6.90;99.90;;;;;;6217259;23;19938;-77
2024/01/01 04:00:12;;;;;;;;;;;6.90;99.90;;;;;;6190366;23;20386;-77
2024/01/01 04:02:39;;;;;;;;;;;6.80;99.90;;;;;;6190216;23;19916;-78
2024/01/01 04:05:05;;;;;;;;;;;6.90;99.90;;;;;;6216696;23;20324;-78
2024/01/01 04:07:30;;;;;;;;;;;6.90;99.90;;;;;;6216746;23;19931;-78
2024/01/01 04:09:56;;;;;;;;;;;6.90;99.90;;;;;;6216723;23;20312;-78
2024/01/01 04:12:21;;;;;;;;;;;6.90;99.90;;;;;;6216931;23;19919;-78
2024/01/01 04:14:47;;;;;;;;;;;6.80;99.90;;;;;;6216895;23;19916;-78
2024/01/01 04:17:12;;;;;;;;;;;6.90;99.90;;;;;;6217107;23;20236;-77
2024/01/01 04:19:38;;;;;;;;;;;6.80;99.90;;;;;;6217118;23;19920;-77
2024/01/01 04:22:04;;;;;;;;;;;6.80;99.90;;;;;;6190353;23;19911;-77
2024/01/01 04:24:29;;;;;;;;;;;6.80;99.90;;;;;;6216782;23;19922;-77
2024/01/01 04:26:55;;;;;;;;;;;6.80;99.90;;;;;;6217002;23;20283;-77
2024/01/01 04:29:20;;;;;;;;;;;6.80;99.90;;;;;;6190199;23;20221;-78
2024/01/01 04:31:46;;;;;;;;;;;6.90;99.90;;;;;;6189952;23;19916;-78
2024/01/01 04:34:12;;;;;;;;;;;6.80;99.90;;;;;;6190033;23;20484;-78
2024/01/01 04:36:38;;;;;;;;;;;6.80;99.90;;;;;;6190121;23;19947;-78
2024/01/01 04:39:04;;;;;;;;;;;6.80;99.90;;;;;;6190383;23;19922;-78
2024/01/01 04:41:29;;;;;;;;;;;6.80;99.90;;;;;;6190993;23;19911;-77
2024/01/01 04:43:55;;;;;;;;;;;6.80;99.90;;;;;;6193473;23;20355;-77
2024/01/01 04:46:20;;;;;;;;;;;6.80;99.90;;;;;;6220330;23;19916;-77
2024/01/01 04:48:46;;;;;;;;;;;6.80;99.90;;;;;;6193198;23;19916;-77
2024/01/01 04:51:12;;;;;;;;;;;6.80;99.90;;;;;;6193220;23;19924;-77
2024/01/01 04:53:37;;;;;;;;;;;6.80;99.90;;;;;;6193205;23;19922;-77
2024/01/01 04:56:04;;;;;;;;;;;6.80;99.90;;;;;;6193227;23;19915;-77
2024/01/01 04:58:29;;;;;;;;;;;6.80;99.90;;;;;;6193127;23;19987;-77
2024/01/01 05:00:55;;;;;;;;;;;6.80;99.90;;;;;;6193274;23;19943;-77
2024/01/01 05:03:20;;;;;;;;;;;6.80;99.90;;;;;;6193152;23;20302;-76
2024/01/01 05:05:46;;;;;;;;;;;6.80;99.90;;;;;;6193224;23;19987;-76
2024/01/01 05:08:11;;;;;;;;;;;6.70;99.90;;;;;;6193182;23;20324;-77
2024/01/01 05:10:40;;;;;;;;;;;6.80;99.90;;;;;;6193042;23;20332;-77
2024/01/01 05:13:07;;;;;;;;;;;6.70;99.90;;;;;;6193086;23;19916;-76
2024/01/01 05:15:33;;;;;;;;;;;6.80;99.90;;;;;;6219735;23;19920;-77
2024/01/01 05:17:58;;;;;;;;;;;6.70;99.90;;;;;;6220005;23;19916;-77
2024/01/01 05:20:25;;;;;;;;;;;6.70;99.90;;;;;;6219959;23;20327;-77
2024/01/01 05:22:52;;;;;;;;;;;6.70;99.90;;;;;;6220196;23;20335;-77
2024/01/01 05:25:17;;;;;;;;;;;6.80;99.90;;;;;;6193112;23;19916;-76
2024/01/01 05:27:43;;;;;;;;;;;6.70;99.90;;;;;;6193030;23;19916;-76
2024/01/01 05:30:09;;;;;;;;;;;6.70;99.90;;;;;;6193039;23;19916;-77
2024/01/01 05:32:34;;;;;;;;;;;6.70;99.90;;;;;;6192939;23;20378;-77
2024/01/01 05:35:00;;;;;;;;;;;6.70;99.90;;;;;;6219983;23;19938;-77
2024/01/01 05:37:25;;;;;;;;;;;6.70;99.90;;;;;;6193034;23;19916;-76
2024/01/01 05:39:54;;;;;;;;;;;6.70;99.90;;;;;;6193017;23;19931;-77
2024/01/01 05:42:19;;;;;;;;;;;6.70;99.90;;;;;;6193035;23;19978;-77
2024/01/01 05:44:45;;;;;;;;;;;6.70;99.90;;;;;;6193118;23;19942;-77
2024/01/01 05:47:10;;;;;;;;;;;6.70;99.90;;;;;;6192950;23;19970;-76
2024/01/01 05:49:36;;;;;;;;;;;6.70;99.90;;;;;;6219406;23;19962;-76
2024/01/01 05:52:02;;;;;;;;;;;6.70;99.90;;;;;;6219475;23;19915;-76
2024/01/01 05:54:28;;;;;;;;;;;6.70;99.90;;;;;;6217982;23;20331;-77
2024/01/01 05:56:53;;;;;;;;;;;6.70;99.90;;;;;;6191328;23;19923;-77
2024/01/01 05:59:19;;;;;;;;;;;6.70;99.90;;;;;;6191425;23;19923;-77
2024/01/01 06:01:47;;;;;;;;;;;6.70;99.90;;;;;;6191354;23;19916;-77
2024/01/01 06:04:12;;;;;;;;;;;6.70;99.90;;;;;;6191287;23;19920;-77
2024/01/01 06:06:38;;;;;;;;;;;6.70;99.90;;;;;;6191325;23;19962;-77
2024/01/01 06:09:10;;;;;;;;;;;6.70;99.90;;;;;;6191403;23;19920;-77
2024/01/01 06:11:41;;;;;;;;;;;6.70;99.90;;;;;;6191215;23;20020;-77
2024/01/01 06:14:07;;;;;;;;;;;6.70;99.90;;;;;;6191136;23;20002;-77
2024/01/01 06:16:32;;;;;;;;;;;6.70;99.90;;;;;;6218123;23;19927;-77
2024/01/01 06:18:58;;;;;;;;;;;6.70;99.90;;;;;;6191205;23;19916;-77
2024/01/01 06:21:23;;;;;;;;;;;6.80;99.90;;;;;;6191175;23;19978;-77
2024/01/01 06:23:52;;;;;;;;;;;6.80;99.90;;;;;;6191130;23;19920;-77
2024/01/01 06:26:17;;;;;;;;;;;6.70;99.90;;;;;;6191018;23;19958;-76
2024/01/01 06:28:43;;;;;;;;;;;6.80;99.90;;;;;;6191067;23;19916;-76
2024/01/01 06:31:09;;;;;;;;;;;6.80;99.90;;;;;;6191340;23;19923;-77
2024/01/01 06:33:34;;;;;;;;;;;6.80;99.90;;;;;;6191082;23;19916;-76
2024/01/01 06:36:00;;;;;;;;;;;6.80;99.90;;;;;;6191001;23;20358;-77
2024/01/01 06:38:25;;;;;;;;;;;6.80;99.90;;;;;;6190959;23;19955;-77
2024/01/01 06:40:51;;;;;;;;;;;6.80;99.90;;;;;;6190921;23;19990;-76
2024/01/01 06:43:16;;;;;;;;;;;6.90;99.90;;;;;;6191005;23;19969;-77
2024/01/01 06:45:42;;;;;;;;;;;6.90;99.90;;;;;;6190923;23;20053;-76
2024/01/01 06:48:11;;;;;;;;;;;6.90;99.90;;;;;;6217446;23;19916;-76
2024/01/01 06:50:37;;;;;;;;;;;6.90;99.90;;;;;;6217217;23;19922;-76
2024/01/01 06:53:02;;;;;;;;;;;6.90;99.90;;;;;;6217289;23;19999;-76
2024/01/01 06:55:29;;;;;;;;;;;6.90;99.90;;;;;;6190842;23;19952;-77
2024/01/01 06:57:55;;;;;;;;;;;6.90;99.90;;;;;;6190821;23;19951;-77
2024/01/01 07:00:20;;;;;;;;;;;6.90;99.90;;;;;;6190850;23;19939;-77
2024/01/01 07:02:49;;;;;;;;;;;6.90;99.90;;;;;;6190910;23;20351;-77
2024/01/01 07:05:21;;;;;;;;;;;6.90;99.90;;;;;;6190647;23;19916;-77
2024/01/01 07:07:47;;;;;;;;;;;6.90;99.90;;;;;;6217728;23;20043;-78
2024/01/01 07:10:13;;;;;;;;;;;6.90;99.90;;;;;;6217107;23;20283;-78
2024/01/01 07:12:38;;;;;;;;;;;6.80;99.90;;;;;;6190558;23;19916;-78
2024/01/01 07:15:04;;;;;;;;;;;6.80;99.90;;;;;;6190650;23;19923;-78
2024/01/01 07:17:30;;;;;;;;;;;6.80;99.90;;;;;;6190532;23;19919;-78
2024/01/01 07:19:55;;;;;;;;;;;6.70;99.90;;;;;;6217521;23;19922;-78
2024/01/01 07:22:21;;;;;;;;;;;6.70;99.90;;;;;;6190586;23;19911;-77
2024/01/01 07:24:46;;;;;;;;;;;6.70;99.90;;;;;;6190458;23;20007;-77
2024/01/01 07:27:12;;;;;;;;;;;6.70;99.90;;;;;;6190447;23;19915;-77
2024/01/01 07:29:38;;;;;;;;;;;6.60;99.90;;;;;;6190544;23;20243;-77
2024/01/01 07:32:04;;;;;;;;;;;6.70;99.90;;;;;;6190354;23;19930;-77
2024/01/01 07:34:39;;;;;;;;;;;6.60;99.90;;;;;;6190358;23;19982;-77
2024/01/01 07:37:04;;;;;;;;;;;6.60;99.90;;;;;;6217255;23;19915;-77
2024/01/01 07:39:30;;;;;;;;;;;6.60;99.90;;;;;;6190356;23;19916;-77
2024/01/01 07:41:56;;;;;;;;;;;6.60;99.90;;;;;;6191102;23;20000;-77
2024/01/01 07:44:21;;;;;;;;;;;6.50;99.90;;;;;;6190403;23;19916;-77
2024/01/01 07:46:48;;;;;;;;;;;6.50;99.90;;;;;;6217246;23;20339;-77
2024/01/01 07:49:16;;;;;;;;;;;6.50;99.90;;;;;;6216761;23;19920;-77
2024/01/01 07:51:41;;;;;;;;;;;6.50;99.90;;;;;;6217012;23;19916;-77
2024/01/01 07:54:07;;;;;;;;;;;6.50;99.90;;;;;;6216785;23;20435;-77
2024/01/01 07:56:32;;;;;;;;;;;6.50;99.90;;;;;;6190147;23;19926;-77
2024/01/01 07:58:58;;;;;;;;;;;6.50;99.90;;;;;;6190173;23;19916;-77
2024/01/01 08:01:24;;;;;;;;;;;6.50;99.90;;;;;;6215988;23;19916;-77
2024/01/01 08:03:53;;;;;;;;;;;6.50;99.90;;;;;;6189580;23;19962;-77
2024/01/01 08:06:20;;;;;;;;;;;6.50;99.90;;;;;;6190005;23;19986;-77
2024/01/01 08:08:45;;;;;;;;;;;6.60;99.90;;;;;;6189959;23;19916;-77
2024/01/01 08:11:11;;;;;;;;;;;6.60;99.90;;;;;;6189935;23;19939;-77
2024/01/01 08:13:36;;;;;;;;;;;6.60;99.90;;;;;;6216844;23;20355;-77
2024/01/01 08:16:02;;;;;;;;;;;6.60;99.90;;;;;;6216448;23;19916;-77
2024/01/01 08:18:27;;;;;;;;;;;6.60;99.90;;;;;;6189920;23;19916;-78
2024/01/01 08:20:53;;;;;;;;;;;6.70;99.90;;;;;;6189811;23;20387;-77
2024/01/01 08:23:19;;;;;;;;;;;6.60;99.90;;;;;;6216328;23;20288;-77
2024/01/01 08:25:44;;;;;;;;;;;6.70;99.90;;;;;;6189948;23;19967;-78
2024/01/01 08:28:10;;;;;;;;;;;6.70;99.90;;;;;;6190007;23;19916;-78
2024/01/01 08:30:35;;;;;;;;;;;6.60;99.90;;;;;;6189908;23;19939;-78
2024/01/01 08:33:01;;;;;;;;;;;6.70;99.90;;;;;;6216666;23;20331;-78
2024/01/01 08:35:26;;;;;;;;;;;6.60;99.90;;;;;;6189841;23;20217;-78
2024/01/01 08:37:53;;;;;;;;;;;6.60;99.90;;;;;;6189770;23;19927;-78
2024/01/01 08:40:18;;;;;;;;;;;6.70;99.90;;;;;;6216721;23;19922;-77
2024/01/01 08:42:44;;;;;;;;;;;6.70;99.90;;;;;;6216659;23;19916;-77
2024/01/01 08:45:10;;;;;;;;;;;6.70;99.90;;;;;;6189773;23;19923;-77
2024/01/01 08:47:36;;;;;;;;;;;6.80;99.90;;;;;;6189894;23;19916;-77
2024/01/01 08:50:01;;;;;;;;;;;6.70;99.90;;;;;;6189702;23;19991;-78
2024/01/01 08:52:27;;;;;;;;;;;6.80;99.90;;;;;;6189676;23;20283;-78
2024/01/01 08:54:53;;;;;;;;;;;6.80;99.90;;;;;;6189683;23;19927;-78
2024/01/01 08:57:18;;;;;;;;;;;6.80;99.90;;;;;;6189775;23;19916;-78
2024/01/01 08:59:44;;;;;;;;;;;6.80;99.90;;;;;;6189841;23;19915;-78
2024/01/01 09:02:10;;;;;;;;;;;6.80;99.90;;;;;;6216366;23;19939;-77
2024/01/01 09:04:35;;;;;;;;;;;6.80;99.90;;;;;;6189605;23;19986;-78
2024/01/01 09:07:02;;;;;;;;;;;6.80;99.90;;;;;;6188471;23;19915;-77
2024/01/01 09:09:28;;;;;;;;;;;6.80;99.90;;;;;;6189466;23;19916;-77
2024/01/01 09:11:53;;;;;;;;;;;6.90;99.90;;;;;;6216307;23;19994;-77
2024/01/01 09:14:19;;;;;;;;;;;6.90;99.90;;;;;;6216413;23;19923;-78
2024/01/01 09:16:46;;;;;;;;;;;7.00;99.90;;;;;;6189418;23;19923;-78
2024/01/01 09:19:14;;;;;;;;;;;7.00;99.90;;;;;;6189399;23;19922;-81
2024/01/01 09:21:40;;;;;;;;;;;7.00;99.90;;;;;;6215835;23;20248;-79
2024/01/01 09:24:08;;;;;;;;;;;7.00;99.90;;;;;;6216062;23;19942;-78
2024/01/01 09:26:34;;;;;;;;;;;7.00;99.90;;;;;;6189483;23;19919;-78
2024/01/01 09:28:59;;;;;;;;;;;7.00;99.90;;;;;;6217251;23;19955;-78
2024/01/01 09:31:26;;;;;;;;;;;7.00;99.90;;;;;;6218185;23;19923;-77
2024/01/01 09:33:51;;;;;;;;;;;7.00;99.90;;;;;;6191222;23;19978;-78
2024/01/01 09:36:17;;;;;;;;;;;7.00;99.90;;;;;;6191244;23;20267;-77
2024/01/01 09:38:43;;;;;;;;;;;7.00;99.90;;;;;;6218029;23;19919;-77
2024/01/01 09:41:12;;;;;;;;;;;7.00;99.90;;;;;;6217731;23;19923;-78
2024/01/01 09:43:39;;;;;;;;;;;7.10;99.90;;;;;;6217741;23;19947;-81
2024/01/01 09:46:05;;;;;;;;;;;7.10;99.90;;;;;;6191151;23;19916;-83
2024/01/01 09:48:33;;;;;;;;;;;7.10;99.90;;;;;;6190951;23;19943;-79
2024/01/01 09:51:01;;;;;;;;;;;7.10;99.90;;;;;;6217852;23;19994;-80
2024/01/01 09:53:27;;;;;;;;;;;7.20;99.90;;;;;;6191045;23;20328;-80
2024/01/01 09:55:54;;;;;;;;;;;7.20;99.90;;;;;;6191051;23;19920;-79
2024/01/01 09:58:19;;;;;;;;;;;7.20;99.90;;;;;;6217854;23;19970;-80
2024/01/01 10:00:45;;;;;;;;;;;7.20;99.90;;;;;;6217885;23;19915;-80
2024/01/01 10:03:10;;;;;;;;;;;7.30;99.90;;;;;;6190953;23;20039;-79
2024/01/01 10:05:36;;;;;;;;;;;7.30;99.90;;;;;;6190932;23;19919;-80
2024/01/01 10:08:08;;;;;;;;;;;7.40;99.90;;;;;;6217594;23;20387;-79
2024/01/01 10:10:34;;;;;;;;;;;7.40;99.90;;;;;;6217398;23;19987;-78
2024/01/01 10:13:10;;;;;;;;;;;7.40;99.90;;;;;;6190788;23;19973;-80
2024/01/01 10:15:37;;;;;;;;;;;7.50;99.90;;;;;;6217679;23;19916;-78
2024/01/01 10:18:07;;;;;;;;;;;7.60;99.90;;;;;;6190670;23;19920;-80
2024/01/01 10:20:33;;;;;;;;;;;7.60;99.90;;;;;;6217594;23;19965;-79
2024/01/01 10:22:58;;;;;;;;;;;7.60;99.90;;;;;;6217526;23;19923;-80
2024/01/01 10:25:25;;;;;;;;;;;7.60;99.90;;;;;;6217668;23;19916;-80
2024/01/01 10:27:55;;;;;;;;;;;7.60;99.90;;;;;;6190814;23;19921;-81
2024/01/01 10:30:20;;;;;;;;;;;7.70;99.90;;;;;;6190523;23;19971;-79
2024/01/01 10:32:47;;;;;;;;;;;7.70;99.90;;;;;;6190702;23;20244;-80
2024/01/01 10:35:13;;;;;;;;;;;7.70;99.90;;;;;;6217024;23;19987;-81
2024/01/01 10:37:39;;;;;;;;;;;7.70;99.90;;;;;;6217068;23;19994;-80
2024/01/01 10:40:05;;;;;;;;;;;7.70;99.90;;;;;;6189956;23;20043;-80
2024/01/01 10:42:34;;;;;;;;;;;7.80;99.90;;;;;;6190616;23;20320;-80
2024/01/01 10:45:05;;;;;;;;;;;7.70;99.90;;;;;;6217445;23;19922;-80
2024/01/01 10:47:31;;;;;;;;;;;7.80;99.90;;;;;;6190561;23;20209;-80
2024/01/01 10:50:19;;;;;;;;;;;7.80;99.90;;;;;;6190399;23;20375;-80
2024/01/01 10:53:01;;;;;;;;;;;7.80;99.90;;;;;;6190458;23;19962;-80
2024/01/01 10:55:41;;;;;;;;;;;7.80;99.90;;;;;;6190424;23;19916;-80
2024/01/01 10:58:17;;;;;;;;;;;7.90;99.90;;;;;;6190429;23;19986;-80
2024/01/01 11:01:02;;;;;;;;;;;7.90;99.90;;;;;;6190430;23;20367;-79
2024/01/01 11:03:29;;;;;;;;;;;7.90;99.90;;;;;;6190454;23;19963;-80
2024/01/01 11:05:54;;;;;;;;;;;8.00;99.90;;;;;;6217205;23;19920;-80
2024/01/01 11:08:29;;;;;;;;;;;8.00;99.90;;;;;;6217290;23;19986;-80
2024/01/01 11:10:55;;;;;;;;;;;8.00;99.90;;;;;;6217523;23;19958;-80
2024/01/01 11:13:26;;;;;;;;;;;8.00;99.90;;;;;;6190301;23;19920;-80
2024/01/01 11:16:03;;;;;;;;;;;8.10;99.90;;;;;;6190239;23;20380;-80
2024/01/01 11:18:32;;;;;;;;;;;8.10;99.90;;;;;;6217235;23;19983;-79
2024/01/01 11:21:01;;;;;;;;;;;8.10;99.90;;;;;;6216789;23;19982;-80
2024/01/01 11:23:41;;;;;;;;;;;8.00;99.90;;;;;;6190054;23;20328;-80
2024/01/01 11:26:22;;;;;;;;;;;8.00;99.90;;;;;;6190117;23;19958;-80
2024/01/01 11:28:55;;;;;;;;;;;8.00;99.90;;;;;;6190066;23;19968;-80
2024/01/01 11:31:21;;;;;;;;;;;8.10;99.90;;;;;;6216471;23;20325;-79
2024/01/01 11:34:06;;;;;;;;;;;8.10;99.90;;;;;;6216703;23;19922;-79
2024/01/01 11:36:31;;;;;;;;;;;8.10;99.90;;;;;;6190023;23;20343;-79
2024/01/01 11:38:57;;;;;;;;;;;8.10;99.90;;;;;;6190128;23;19916;-80
2024/01/01 11:41:26;;;;;;;;;;;8.10;99.90;;;;;;6216892;23;20331;-80
2024/01/01 11:43:52;;;;;;;;;;;8.10;99.90;;;;;;6216556;23;20316;-80
2024/01/01 11:46:24;;;;;;;;;;;8.10;99.90;;;;;;6189786;23;19911;-80
2024/01/01 11:48:56;;;;;;;;;;;8.10;99.90;;;;;;6189664;23;19926;-79
2024/01/01 11:51:24;;;;;;;;;;;8.10;99.90;;;;;;6216732;23;19930;-79
2024/01/01 11:54:02;;;;;;;;;;;8.10;99.90;;;;;;6189474;23;20378;-79
2024/01/01 11:56:30;;;;;;;;;;;8.10;99.90;;;;;;6190563;23;19916;-79
2024/01/01 11:58:56;;;;;;;;;;;8.10;99.90;;;;;;6216459;23;20320;-79
2024/01/01 12:01:22;;;;;;;;;;;8.10;99.90;;;;;;6189872;23;19923;-78
2024/01/01 12:03:47;;;;;;;;;;;8.00;99.90;;;;;;6189903;23;19916;-79
2024/01/01 12:06:14;;;;;;;;;;;8.00;99.90;;;;;;6189806;23;19920;-79
2024/01/01 12:08:40;;;;;;;;;;;8.00;99.90;;;;;;6189617;23;19939;-79
2024/01/01 12:11:05;;;;;;;;;;;8.00;99.90;;;;;;6189692;23;19967;-79
2024/01/01 12:13:31;;;;;;;;;;;8.00;99.90;;;;;;6189262;23;19915;-79
2024/01/01 12:15:56;;;;;;;;;;;8.00;99.90;;;;;;6189574;23;19916;-79
2024/01/01 12:18:22;;;;;;;;;;;8.00;99.90;;;;;;6189678;23;19948;-79
2024/01/01 12:20:48;;;;;;;;;;;8.00;99.90;;;;;;6189660;23;19942;-79
2024/01/01 12:23:14;;;;;;;;;;;8.00;99.90;;;;;;6216590;23;20365;-79
2024/01/01 12:25:39;;;;;;;;;;;8.00;99.90;;;;;;6189687;23;19923;-79
2024/01/01 12:28:06;;;;;;;;;;;8.10;99.90;;;;;;6189622;23;19916;-78
2024/01/01 12:30:32;;;;;;;;;;;8.10;99.90;;;;;;6216544;23;19916;-78
2024/01/01 12:32:58;;;;;;;;;;;8.10;99.90;;;;;;6189647;23;19969;-78
2024/01/01 12:35:23;;;;;;;;;;;8.10;99.90;;;;;;6189606;23;19923;-77
2024/01/01 12:37:50;;;;;;;;;;;8.10;99.90;;;;;;6216476;23;19978;-77
2024/01/01 12:40:16;;;;;;;;;;;8.00;99.90;;;;;;6216527;23;19923;-77
2024/01/01 12:42:41;;;;;;;;;;;8.10;99.90;;;;;;6216493;23;19916;-77
2024/01/01 12:45:07;;;;;;;;;;;8.10;99.90;;;;;;6189649;23;19916;-77
2024/01/01 12:47:33;;;;;;;;;;;8.10;99.90;;;;;;6189678;23;19920;-77
2024/01/01 12:49:58;;;;;;;;;;;8.10;99.90;;;;;;6189306;23;19916;-77
2024/01/01 12:52:26;;;;;;;;;;;8.10;99.90;;;;;;6189469;23;19919;-78
2024/01/01 12:54:52;;;;;;;;;;;8.10;99.90;;;;;;6189492;23;20346;-77
2024/01/01 12:57:17;;;;;;;;;;;8.10;99.90;;;;;;6216473;23;19987;-77
2024/01/01 12:59:43;;;;;;;;;;;8.10;99.90;;;;;;6189491;23;20292;-77
2024/01/01 13:02:08;;;;;;;;;;;8.10;99.90;;;;;;6189489;23;19916;-77
2024/01/01 13:04:34;;;;;;;;;;;8.10;99.90;;;;;;6217964;23;19919;-77
2024/01/01 13:06:59;;;;;;;;;;;8.10;99.90;;;;;;6191621;23;19916;-77
2024/01/01 13:09:25;;;;;;;;;;;8.10;99.90;;;;;;6191511;23;19916;-77
2024/01/01 13:11:50;;;;;;;;;;;8.10;99.90;;;;;;6191355;23;19955;-77
2024/01/01 13:14:16;;;;;;;;;;;8.10;99.90;;;;;;6191055;23;19919;-78
2024/01/01 13:16:42;;;;;;;;;;;8.10;99.90;;;;;;6217622;23;19935;-78
2024/01/01 13:19:07;;;;;;;;;;;8.10;99.90;;;;;;6218096;23;19922;-78
2024/01/01 13:21:36;;;;;;;;;;;8.10;99.90;;;;;;6191258;23;19920;-79
2024/01/01 13:24:01;;;;;;;;;;;8.10;99.90;;;;;;6218266;23;19984;-79
2024/01/01 13:26:30;;;;;;;;;;;8.10;99.90;;;;;;6218011;23;19916;-77
2024/01/01 13:28:55;;;;;;;;;;;8.10;99.90;;;;;;6218178;23;19923;-79
2024/01/01 13:31:21;;;;;;;;;;;8.10;99.90;;;;;;6190673;23;19916;-78
2024/01/01 13:33:47;;;;;;;;;;;8.10;99.90;;;;;;6191496;23;19916;-78
2024/01/01 13:36:12;;;;;;;;;;;8.10;99.90;;;;;;6191214;23;20236;-78
2024/01/01 13:38:41;;;;;;;;;;;8.00;99.90;;;;;;6191229;23;20247;-78
2024/01/01 13:41:07;;;;;;;;;;;8.00;99.90;;;;;;6217808;23;19915;-78
2024/01/01 13:43:32;;;;;;;;;;;8.00;99.90;;;;;;6191084;23;19928;-78
2024/01/01 13:45:58;;;;;;;;;;;8.00;99.90;;;;;;6191115;23;20340;-78
2024/01/01 13:48:25;;;;;;;;;;;8.00;99.90;;;;;;6217362;23;20363;-78
2024/01/01 13:50:51;;;;;;;;;;;8.00;99.90;;;;;;6190982;23;20251;-77
2024/01/01 13:53:16;;;;;;;;;;;8.00;99.90;;;;;;6191085;23;19990;-78
2024/01/01 13:55:42;;;;;;;;;;;8.00;99.90;;;;;;6191114;23;20324;-78
2024/01/01 13:58:08;;;;;;;;;;;8.00;99.90;;;;;;6217508;23;19943;-78
2024/01/01 14:00:36;;;;;;;;;;;8.00;99.90;;;;;;6191005;23;19926;-78
2024/01/01 14:03:02;;;;;;;;;;;8.00;99.90;;;;;;6190884;23;19922;-78
2024/01/01 14:05:27;;;;;;;;;;;8.00;99.90;;;;;;6191101;23;19916;-78
2024/01/01 14:07:53;;;;;;;;;;;8.00;99.90;;;;;;6190840;23;20350;-78
2024/01/01 14:10:19;;;;;;;;;;;8.00;99.90;;;;;;6191007;23;20403;-77
2024/01/01 14:12:48;;;;;;;;;;;8.00;99.90;;;;;;6217417;23;19924;-78
2024/01/01 14:15:16;;;;;;;;;;;7.90;99.90;;;;;;6190369;23;19920;-78
2024/01/01 14:17:41;;;;;;;;;;;7.90;99.90;;;;;;6217941;23;19919;-78
2024/01/01 14:20:08;;;;;;;;;;;8.00;99.90;;;;;;6217929;23;19915;-78
2024/01/01 14:22:33;;;;;;;;;;;8.00;99.90;;;;;;6191069;23;19916;-78
2024/01/01 14:24:59;;;;;;;;;;;7.90;99.90;;;;;;6191026;23;19966;-78
2024/01/01 14:27:24;;;;;;;;;;;8.00;99.90;;;;;;6217890;23;19915;-78